Time;durP1;ratioP1;P1;durP2;ratioP2;P2;SDS_P1;SDS_P2;PMS_P1;PMS_P2;Temp;Humidity;BMP_temperature;BMP_pressure;BME280_temperature;BME280_humidity;BME280_pressure;Samples;Min_cycle;Max_cycle;Signal;HPM_P1;HPM_P2
2021/06/16 00:00:07;;;;;;;2.33;1.30;;;;;;;16.99;56.67;101146.81;5106826;28;20217;-65
2021/06/16 00:02:36;;;;;;;3.80;1.60;;;;;;;16.85;56.90;101149.75;5097622;28;20197;-66
2021/06/16 00:05:05;;;;;;;5.00;1.77;;;;;;;16.74;57.31;101147.09;5089893;28;20707;-64
2021/06/16 00:07:31;;;;;;;3.63;1.50;;;;;;;16.66;57.91;101148.56;5107339;28;20226;-65
2021/06/16 00:09:58;;;;;;;3.37;1.80;;;;;;;16.61;58.31;101150.75;5102486;28;20209;-65
2021/06/16 00:12:26;;;;;;;2.93;1.73;;;;;;;16.57;58.65;101146.59;5108139;28;20217;-64
2021/06/16 00:14:53;;;;;;;3.23;1.90;;;;;;;16.54;58.61;101146.00;5107914;28;20220;-67
2021/06/16 00:17:19;;;;;;;5.03;1.77;;;;;;;16.51;58.72;101147.09;5109952;28;20232;-65
2021/06/16 00:19:47;;;;;;;4.33;1.80;;;;;;;16.46;58.81;101143.94;5108542;28;20213;-67
2021/06/16 00:22:14;;;;;;;3.47;1.57;;;;;;;16.40;58.81;101149.78;5109752;28;20197;-65
2021/06/16 00:24:40;;;;;;;5.73;2.07;;;;;;;16.31;58.64;101147.81;5109129;28;20227;-66
2021/06/16 00:27:07;;;;;;;3.87;2.00;;;;;;;16.22;59.43;101144.03;5104453;28;20228;-65
2021/06/16 00:29:34;;;;;;;2.67;1.87;;;;;;;16.13;59.16;101147.44;5101056;28;20680;-65
2021/06/16 00:32:01;;;;;;;4.37;1.80;;;;;;;16.05;59.40;101138.28;5106988;28;20724;-66
2021/06/16 00:34:27;;;;;;;2.30;1.60;;;;;;;16.00;59.71;101138.63;5107682;28;20228;-65
2021/06/16 00:36:55;;;;;;;8.20;2.13;;;;;;;15.96;59.83;101138.00;5106696;28;20685;-65
2021/06/16 00:39:22;;;;;;;2.93;1.50;;;;;;;15.94;60.33;101148.03;5097110;28;20211;-66
2021/06/16 00:41:48;;;;;;;2.77;1.80;;;;;;;15.90;60.26;101146.56;5105967;28;20201;-63
2021/06/16 00:44:15;;;;;;;3.20;1.20;;;;;;;15.86;59.87;101145.09;5106868;28;20204;-66
2021/06/16 00:46:41;;;;;;;1.87;1.47;;;;;;;15.78;60.02;101142.13;5108202;28;20212;-65
2021/06/16 00:49:08;;;;;;;5.33;1.63;;;;;;;15.71;60.02;101146.28;5101538;28;20288;-66
2021/06/16 00:51:35;;;;;;;6.33;2.10;;;;;;;15.61;59.88;101142.56;5109177;28;20227;-65
2021/06/16 00:54:09;;;;;;;4.33;1.93;;;;;;;15.52;60.37;101140.56;5106651;28;20591;-66
2021/06/16 00:56:36;;;;;;;4.17;2.03;;;;;;;15.44;60.25;101141.16;5108169;28;20211;-66
2021/06/16 00:59:03;;;;;;;3.67;1.60;;;;;;;15.39;60.65;101143.34;5104536;28;20208;-65
2021/06/16 01:01:31;;;;;;;3.93;1.80;;;;;;;15.33;61.01;101135.75;5099960;28;20223;-65
2021/06/16 01:04:02;;;;;;;2.80;1.57;;;;;;;15.26;60.77;101139.84;5094365;28;20533;-66
2021/06/16 01:06:34;;;;;;;2.43;1.70;;;;;;;15.18;61.35;101144.94;5098332;28;20712;-67
2021/06/16 01:09:11;;;;;;;2.13;1.77;;;;;;;15.12;61.78;101140.88;5105751;28;20206;-64
2021/06/16 01:11:49;;;;;;;5.03;1.80;;;;;;;15.07;62.02;101135.00;5100287;28;20560;-66
2021/06/16 01:14:22;;;;;;;3.63;1.80;;;;;;;15.04;62.35;101137.09;5105433;28;20594;-65
2021/06/16 01:16:55;;;;;;;4.00;2.27;;;;;;;15.00;62.41;101133.75;5098109;28;20196;-65
2021/06/16 01:19:43;;;;;;;3.77;2.53;;;;;;;14.94;62.31;101129.69;5105590;28;20203;-66
2021/06/16 01:22:20;;;;;;;3.80;2.10;;;;;;;14.88;62.99;101134.66;5100680;28;20196;-65
2021/06/16 01:24:52;;;;;;;3.67;2.30;;;;;;;14.82;63.14;101140.47;5104614;28;20219;-67
2021/06/16 01:27:22;;;;;;;5.90;2.50;;;;;;;14.80;63.92;101139.72;5114480;28;20196;-65
2021/06/16 01:29:51;;;;;;;5.37;2.30;;;;;;;14.76;63.87;101135.56;5109020;28;20202;-67
2021/06/16 01:32:18;;;;;;;4.90;2.10;;;;;;;14.73;63.74;101127.72;5103520;28;20583;-65
2021/06/16 01:34:44;;;;;;;5.27;2.10;;;;;;;14.66;64.28;101130.03;5097874;28;20220;-65
2021/06/16 01:37:11;;;;;;;4.50;2.23;;;;;;;14.62;64.43;101127.66;5107069;28;20231;-65
2021/06/16 01:39:39;;;;;;;3.97;2.17;;;;;;;14.57;64.69;101126.16;5106463;28;20196;-65
2021/06/16 01:42:10;;;;;;;2.97;2.20;;;;;;;14.55;64.73;101128.09;5103613;28;20252;-65
2021/06/16 01:44:39;;;;;;;3.37;2.63;;;;;;;14.48;64.92;101131.34;5098025;28;20240;-65
2021/06/16 01:47:07;;;;;;;5.90;2.30;;;;;;;14.41;65.27;101138.09;5111929;28;20202;-65
2021/06/16 01:49:34;;;;;;;5.03;2.40;;;;;;;14.33;65.35;101133.25;5113374;28;20571;-65
2021/06/16 01:52:04;;;;;;;4.37;2.73;;;;;;;14.28;65.67;101131.88;5100411;28;20239;-67
2021/06/16 01:54:33;;;;;;;4.07;2.50;;;;;;;14.20;65.54;101137.78;5104845;28;20715;-66
2021/06/16 01:57:01;;;;;;;5.20;2.87;;;;;;;14.13;66.11;101136.50;5100972;28;20211;-66
2021/06/16 01:59:28;;;;;;;5.57;2.63;;;;;;;14.06;66.14;101135.22;5113096;28;20196;-66
2021/06/16 02:01:56;;;;;;;2.50;2.20;;;;;;;14.03;66.64;101138.09;5112132;28;20207;-66
2021/06/16 02:04:22;;;;;;;4.50;2.40;;;;;;;13.99;66.53;101129.41;5103379;28;20199;-66
2021/06/16 02:06:54;;;;;;;4.73;2.20;;;;;;;13.98;66.60;101134.88;5113020;28;20203;-66
2021/06/16 02:09:25;;;;;;;3.27;2.47;;;;;;;13.93;66.45;101134.38;5101715;28;20195;-65
2021/06/16 02:11:51;;;;;;;2.90;1.90;;;;;;;13.88;66.59;101123.97;5112554;28;20200;-66
2021/06/16 02:14:20;;;;;;;3.10;2.00;;;;;;;13.84;66.66;101130.50;5100080;28;20688;-67
2021/06/16 02:16:50;;;;;;;2.13;2.00;;;;;;;13.81;67.16;101118.16;5099692;28;20200;-66
2021/06/16 02:19:22;;;;;;;4.00;2.07;;;;;;;13.78;66.94;101110.38;5104108;28;20200;-66
2021/06/16 02:21:49;;;;;;;4.40;2.43;;;;;;;13.71;67.07;101117.09;5102606;28;20674;-66
2021/06/16 02:24:15;;;;;;;4.87;2.63;;;;;;;13.63;66.85;101105.19;5111133;28;20204;-66
2021/06/16 02:26:42;;;;;;;3.87;2.30;;;;;;;13.57;67.25;101109.19;5109208;28;20199;-65
2021/06/16 02:29:10;;;;;;;3.57;2.23;;;;;;;13.54;67.38;101109.38;5112812;28;20202;-65
2021/06/16 02:31:37;;;;;;;6.00;2.67;;;;;;;13.51;67.44;101112.25;5108657;28;20203;-66
2021/06/16 02:34:04;;;;;;;4.97;2.67;;;;;;;13.46;67.53;101104.53;5112434;28;20573;-65
2021/06/16 02:36:37;;;;;;;5.00;2.80;;;;;;;13.46;67.96;101096.50;5102200;28;20231;-65
2021/06/16 02:39:07;;;;;;;4.53;2.40;;;;;;;13.47;68.35;101097.38;5106486;28;20672;-65
2021/06/16 02:41:35;;;;;;;5.00;2.40;;;;;;;13.47;68.43;101100.03;5110854;28;20200;-67
2021/06/16 02:44:03;;;;;;;4.60;2.83;;;;;;;13.47;68.16;101097.38;5103069;28;20203;-65
2021/06/16 02:46:32;;;;;;;3.17;2.27;;;;;;;13.46;68.16;101099.19;5095669;28;20232;-65
2021/06/16 02:48:59;;;;;;;3.90;2.63;;;;;;;13.46;68.81;101099.19;5110190;28;20294;-67
2021/06/16 02:51:26;;;;;;;4.83;2.73;;;;;;;13.47;68.35;101094.69;5106793;28;20211;-65
2021/06/16 02:53:55;;;;;;;7.60;2.40;;;;;;;13.47;68.10;101097.38;5104360;28;20234;-67
2021/06/16 02:56:23;;;;;;;5.80;3.17;;;;;;;13.42;68.14;101099.53;5107227;28;20231;-66
2021/06/16 02:58:50;;;;;;;4.00;2.67;;;;;;;13.36;68.33;101089.22;5100897;28;20680;-66
2021/06/16 03:01:18;;;;;;;6.97;2.67;;;;;;;13.30;68.44;101090.50;5105068;28;20211;-66
2021/06/16 03:03:49;;;;;;;4.20;2.73;;;;;;;13.27;68.28;101084.47;5104321;28;20207;-66
2021/06/16 03:06:18;;;;;;;4.30;2.40;;;;;;;13.24;68.29;101092.75;5111577;28;20751;-65
2021/06/16 03:08:47;;;;;;;5.70;2.50;;;;;;;13.19;68.78;101088.56;5108803;28;20194;-65
2021/06/16 03:11:16;;;;;;;5.07;3.10;;;;;;;13.17;68.60;101093.13;5096805;28;20730;-66
2021/06/16 03:13:45;;;;;;;4.47;2.90;;;;;;;13.16;68.83;101090.56;5101341;28;20235;-66
2021/06/16 03:16:12;;;;;;;3.70;2.50;;;;;;;13.15;68.93;101089.72;5101181;28;20320;-66
2021/06/16 03:18:38;;;;;;;10.80;2.90;;;;;;;13.14;68.81;101085.28;5111229;28;20648;-66
2021/06/16 03:21:06;;;;;;;5.10;3.40;;;;;;;13.14;69.08;101089.78;5110902;28;20196;-66
2021/06/16 03:23:34;;;;;;;4.63;3.23;;;;;;;13.11;68.94;101093.50;5089329;28;20203;-67
2021/06/16 03:26:02;;;;;;;5.43;3.20;;;;;;;13.09;69.09;101084.72;5095022;28;20220;-67
2021/06/16 03:28:31;;;;;;;6.70;3.10;;;;;;;13.07;69.41;101080.47;5101172;28;20195;-65
2021/06/16 03:30:59;;;;;;;6.83;3.53;;;;;;;13.05;69.53;101083.25;5100372;28;20658;-67
2021/06/16 03:33:25;;;;;;;6.33;3.10;;;;;;;13.01;70.05;101087.06;5109450;28;20219;-67
2021/06/16 03:35:52;;;;;;;7.60;3.10;;;;;;;13.00;70.01;101085.34;5106345;28;20593;-66
2021/06/16 03:38:19;;;;;;;5.17;2.97;;;;;;;13.02;70.32;101082.59;5105703;28;20243;-64
2021/06/16 03:40:48;;;;;;;4.80;2.70;;;;;;;13.05;70.73;101085.06;5098959;28;20199;-65
2021/06/16 03:43:17;;;;;;;5.40;2.90;;;;;;;13.06;70.52;101084.09;5104730;28;20196;-65
2021/06/16 03:48:16;;;;;;;6.40;3.67;;;;;;;13.09;71.30;101081.19;5048511;28;20209;-65
2021/06/16 03:50:44;;;;;;;5.43;3.17;;;;;;;13.09;71.22;101068.69;5047250;28;20209;-67
2021/06/16 03:53:12;;;;;;;3.20;2.90;;;;;;;13.09;71.05;101073.19;5042926;28;20230;-67
2021/06/16 03:55:42;;;;;;;4.87;3.23;;;;;;;13.04;70.72;101073.50;5046772;28;20226;-65
2021/06/16 03:58:10;;;;;;;5.77;2.70;;;;;;;13.00;71.18;101074.66;5043532;28;20202;-65
2021/06/16 04:00:37;;;;;;;4.17;3.63;;;;;;;12.97;70.94;101074.84;5044572;28;20206;-65
2021/06/16 04:03:07;;;;;;;4.27;3.00;;;;;;;12.94;71.28;101072.38;5048240;28;20209;-67
2021/06/16 04:05:36;;;;;;;8.10;3.07;;;;;;;12.93;71.54;101073.34;5040403;28;20229;-65
2021/06/16 04:08:05;;;;;;;5.43;3.00;;;;;;;12.93;71.52;101077.84;5055826;28;20212;-65
2021/06/16 04:10:32;;;;;;;5.20;3.13;;;;;;;12.92;71.49;101078.78;5046361;28;20228;-65
2021/06/16 04:12:59;;;;;;;5.97;3.80;;;;;;;12.92;72.20;101071.63;5046525;28;20222;-65
2021/06/16 04:15:26;;;;;;;8.07;3.83;;;;;;;12.92;72.49;101074.31;5044041;28;20239;-65
2021/06/16 04:17:54;;;;;;;6.67;3.80;;;;;;;12.94;72.77;101076.88;5043310;28;20195;-64
2021/06/16 04:20:21;;;;;;;6.60;3.77;;;;;;;12.96;72.86;101078.50;5042314;28;20258;-67
2021/06/16 04:22:49;;;;;;;8.53;4.10;;;;;;;12.98;72.89;101073.91;5047145;28;20198;-66
2021/06/16 04:25:16;;;;;;;5.57;3.70;;;;;;;13.02;73.03;101071.88;5052341;28;20714;-65
2021/06/16 04:27:43;;;;;;;7.23;4.70;;;;;;;13.05;73.30;101083.25;5052131;28;20205;-65
2021/06/16 04:30:12;;;;;;;6.00;4.10;;;;;;;13.09;73.61;101074.03;5054355;28;20211;-64
2021/06/16 04:32:39;;;;;;;6.10;4.30;;;;;;;13.14;73.46;101074.59;5049150;28;20220;-64
2021/06/16 04:35:07;;;;;;;6.47;4.03;;;;;;;13.16;73.70;101067.34;5049153;28;20229;-66
2021/06/16 04:37:34;;;;;;;6.07;4.07;;;;;;;13.23;73.81;101077.66;5050110;28;20695;-65
2021/06/16 04:40:04;;;;;;;7.67;3.77;;;;;;;13.31;74.24;101072.63;5054163;28;20663;-64
2021/06/16 04:42:30;;;;;;;6.27;4.23;;;;;;;13.36;73.91;101070.50;5054246;28;20205;-65
2021/06/16 04:44:57;;;;;;;7.33;4.63;;;;;;;13.43;73.64;101071.81;5044821;28;20558;-65
2021/06/16 04:47:23;;;;;;;5.30;4.03;;;;;;;13.49;74.04;101066.88;5057193;28;20555;-64
2021/06/16 04:49:50;;;;;;;8.20;4.63;;;;;;;13.57;74.08;101074.38;5057133;28;20197;-65
2021/06/16 04:52:17;;;;;;;6.73;4.57;;;;;;;13.62;74.09;101061.53;5043484;28;20211;-64
2021/06/16 04:54:43;;;;;;;9.67;4.43;;;;;;;13.69;74.02;101062.81;5053400;28;20236;-64
2021/06/16 04:57:11;;;;;;;6.90;5.23;;;;;;;13.74;73.58;101066.03;5046408;28;20206;-63
2021/06/16 04:59:37;;;;;;;8.83;5.43;;;;;;;13.79;73.70;101063.88;5052049;28;20202;-67
2021/06/16 05:02:05;;;;;;;7.23;5.50;;;;;;;13.83;73.67;101062.69;5048669;28;20202;-64
2021/06/16 05:04:31;;;;;;;8.30;5.50;;;;;;;13.88;74.13;101060.56;5056803;28;20208;-66
2021/06/16 05:06:58;;;;;;;8.10;5.10;;;;;;;13.93;74.11;101054.91;5060859;28;20201;-66
2021/06/16 05:09:24;;;;;;;7.10;5.10;;;;;;;13.99;74.09;101058.94;5053943;28;20206;-65
2021/06/16 05:11:51;;;;;;;9.77;5.17;;;;;;;14.05;74.16;101047.78;5064159;28;20211;-65
2021/06/16 05:14:19;;;;;;;9.60;5.40;;;;;;;14.13;73.79;101050.78;5056083;28;20228;-66
2021/06/16 05:16:45;;;;;;;9.83;5.40;;;;;;;14.19;73.75;101051.19;5046552;28;20229;-66
2021/06/16 05:19:16;;;;;;;6.97;5.70;;;;;;;14.27;73.42;101055.16;5051244;28;20318;-66
2021/06/16 05:21:43;;;;;;;8.17;5.63;;;;;;;14.35;73.81;101053.63;5053588;28;20217;-73
2021/06/16 05:24:10;;;;;;;8.87;5.60;;;;;;;14.45;73.76;101045.81;5052173;28;20266;-74
2021/06/16 05:26:37;;;;;;;6.43;5.57;;;;;;;14.54;73.47;101051.34;5044409;28;20229;-74
2021/06/16 05:29:03;;;;;;;7.30;5.93;;;;;;;14.63;73.46;101046.28;5041993;28;20726;-73
2021/06/16 05:31:31;;;;;;;6.23;5.53;;;;;;;14.74;72.89;101035.59;5051035;28;20202;-74
2021/06/16 05:33:58;;;;;;;7.57;5.97;;;;;;;14.83;73.02;101037.63;5040582;28;20247;-76
2021/06/16 05:36:25;;;;;;;9.50;6.20;;;;;;;14.93;72.71;101038.63;5049893;28;20232;-72
2021/06/16 05:38:52;;;;;;;6.73;5.40;;;;;;;15.03;72.37;101036.97;5055870;28;20213;-73
2021/06/16 05:41:18;;;;;;;8.10;6.53;;;;;;;15.16;72.31;101028.84;5045943;28;20221;-76
2021/06/16 05:43:45;;;;;;;7.50;5.80;;;;;;;15.30;71.94;101039.38;5051654;28;20221;-73
2021/06/16 05:46:12;;;;;;;8.00;6.27;;;;;;;15.45;71.81;101030.13;5050358;28;20606;-74
2021/06/16 05:48:39;;;;;;;6.83;6.03;;;;;;;15.61;71.57;101027.97;5071493;28;20689;-73
2021/06/16 05:51:06;;;;;;;9.37;5.80;;;;;;;15.79;71.45;101024.81;5071561;28;20201;-73
2021/06/16 05:53:33;;;;;;;9.93;6.00;;;;;;;15.96;70.48;101024.34;5071066;28;20217;-73
2021/06/16 05:55:59;;;;;;;6.67;5.47;;;;;;;16.12;69.86;101027.50;5071445;28;20239;-75
2021/06/16 05:58:26;;;;;;;7.40;5.43;;;;;;;16.29;69.46;101027.03;5071870;28;20200;-74
2021/06/16 06:00:52;;;;;;;10.27;6.33;;;;;;;16.48;68.66;101028.22;5071967;28;20203;-73
2021/06/16 06:03:19;;;;;;;8.83;6.20;;;;;;;16.65;68.34;101036.63;5071356;28;20670;-73
2021/06/16 06:05:47;;;;;;;7.40;5.87;;;;;;;16.82;67.66;101031.69;5071785;28;20225;-73
2021/06/16 06:08:13;;;;;;;7.70;6.20;;;;;;;17.02;67.21;101033.53;5072546;28;20213;-74
2021/06/16 06:10:40;;;;;;;9.30;6.13;;;;;;;17.21;66.91;101028.28;5071262;28;20204;-74
2021/06/16 06:13:06;;;;;;;8.63;5.90;;;;;;;17.40;66.23;101018.66;5071445;28;20570;-73
2021/06/16 06:15:33;;;;;;;9.50;6.10;;;;;;;17.56;65.62;101021.72;5071983;28;20218;-74
2021/06/16 06:18:00;;;;;;;10.67;6.20;;;;;;;17.76;65.23;101023.56;5071563;28;20206;-74
2021/06/16 06:20:26;;;;;;;8.50;6.23;;;;;;;17.93;64.64;101016.69;5075242;28;20683;-73
2021/06/16 06:22:56;;;;;;;10.07;5.70;;;;;;;18.11;63.87;101016.91;5080774;28;20206;-76
2021/06/16 06:25:23;;;;;;;9.57;5.63;;;;;;;18.26;63.13;101015.56;5078232;28;20221;-73
2021/06/16 06:27:50;;;;;;;10.47;6.00;;;;;;;18.43;62.90;101020.28;5078432;28;20207;-74
2021/06/16 06:30:16;;;;;;;9.80;5.03;;;;;;;18.60;62.26;101019.63;5074895;28;20205;-74
2021/06/16 06:32:43;;;;;;;9.90;5.67;;;;;;;18.76;61.59;101012.84;5075662;28;20227;-74
2021/06/16 06:35:10;;;;;;;9.33;5.80;;;;;;;18.90;61.05;101010.56;5077547;28;20232;-74
2021/06/16 06:37:37;;;;;;;7.37;5.73;;;;;;;19.06;60.56;101010.84;5074966;28;20212;-74
2021/06/16 06:40:06;;;;;;;8.40;5.70;;;;;;;19.21;60.18;101005.00;5082657;28;20197;-74
2021/06/16 06:42:33;;;;;;;7.80;5.90;;;;;;;19.38;59.81;100998.84;5075199;28;20596;-75
2021/06/16 06:44:59;;;;;;;6.97;5.40;;;;;;;19.54;59.46;101000.97;5076403;28;20222;-74
2021/06/16 06:47:26;;;;;;;9.70;5.87;;;;;;;19.68;58.96;100997.81;5057659;28;20226;-74
2021/06/16 06:49:53;;;;;;;10.87;6.00;;;;;;;19.82;58.74;101002.75;5051119;28;20214;-74
2021/06/16 06:52:20;;;;;;;8.00;5.23;;;;;;;19.96;58.52;100998.69;5051469;28;20195;-74
2021/06/16 06:54:46;;;;;;;7.97;5.30;;;;;;;20.13;58.06;100994.34;5051233;28;20226;-74
2021/06/16 06:57:14;;;;;;;10.43;5.30;;;;;;;20.33;57.60;100993.25;5052000;28;20205;-75
2021/06/16 06:59:41;;;;;;;6.80;4.73;;;;;;;20.48;57.05;100989.03;5034613;28;20219;-74
2021/06/16 07:02:08;;;;;;;8.27;4.57;;;;;;;20.64;56.60;100994.63;5048916;28;20209;-74
2021/06/16 07:04:34;;;;;;;6.53;4.53;;;;;;;20.75;56.13;100989.00;5045358;28;20562;-64
2021/06/16 07:07:01;;;;;;;7.67;3.90;;;;;;;20.86;55.71;100990.59;5049227;28;20574;-64
2021/06/16 07:09:27;;;;;;;8.53;4.43;;;;;;;20.95;55.34;100986.13;5045594;28;20211;-64
2021/06/16 07:11:54;;;;;;;7.17;4.27;;;;;;;21.10;55.55;100995.41;5044039;28;20217;-64
2021/06/16 07:14:21;;;;;;;6.30;4.50;;;;;;;21.27;55.45;100980.16;5038513;28;20224;-64
2021/06/16 07:16:48;;;;;;;7.53;4.20;;;;;;;21.43;55.55;100993.81;5045538;28;20347;-61
2021/06/16 07:19:14;;;;;;;10.37;3.77;;;;;;;21.60;54.61;100986.63;5046002;28;20568;-64
2021/06/16 07:21:41;;;;;;;5.90;4.00;;;;;;;21.75;54.46;100983.16;5036661;28;20286;-63
2021/06/16 07:24:09;;;;;;;4.70;3.43;;;;;;;21.91;53.84;100979.69;5038237;28;20197;-63
2021/06/16 07:26:36;;;;;;;5.70;3.70;;;;;;;22.03;53.21;100981.16;5042207;28;20224;-75
2021/06/16 07:29:02;;;;;;;6.57;3.53;;;;;;;22.14;53.09;100980.84;5036323;28;20211;-74
2021/06/16 07:31:30;;;;;;;3.83;3.23;;;;;;;22.25;53.27;100976.09;5036374;28;20224;-74
2021/06/16 07:33:57;;;;;;;4.65;3.00;;;;;;;22.40;52.91;100972.59;5039584;28;20229;-74
2021/06/16 07:36:23;;;;;;;5.10;2.70;;;;;;;22.53;51.96;100974.84;5038257;28;20221;-73
2021/06/16 07:38:50;;;;;;;5.05;2.85;;;;;;;22.63;51.58;100970.09;5050553;28;20662;-74
2021/06/16 07:41:16;;;;;;;5.22;2.92;;;;;;;22.73;51.41;100959.94;5049667;28;20205;-75
2021/06/16 07:43:43;;;;;;;5.07;2.95;;;;;;;22.84;51.10;100959.63;5049686;28;20583;-74
2021/06/16 07:46:10;;;;;;;4.53;3.20;;;;;;;22.95;50.52;100952.16;5048398;28;20263;-74
2021/06/16 07:48:37;;;;;;;5.43;3.03;;;;;;;23.03;50.47;100955.72;5049863;28;20197;-73
2021/06/16 07:51:05;;;;;;;5.38;2.97;;;;;;;23.17;50.73;100956.91;5037713;28;20202;-73
2021/06/16 07:53:31;;;;;;;6.00;3.53;;;;;;;23.34;50.31;100952.28;5036572;28;20215;-75
2021/06/16 07:55:58;;;;;;;3.58;2.40;;;;;;;23.46;50.04;100957.22;5047071;28;20714;-73
2021/06/16 07:58:25;;;;;;;3.92;2.78;;;;;;;23.60;50.14;100957.56;5047031;28;20207;-72
2021/06/16 08:00:52;;;;;;;6.90;2.97;;;;;;;23.73;50.12;100955.97;5038340;28;20626;-74
2021/06/16 08:03:18;;;;;;;5.47;2.90;;;;;;;23.89;49.93;100952.34;5046174;28;20677;-74
2021/06/16 08:05:47;;;;;;;3.13;2.58;;;;;;;24.04;50.56;100945.13;5049282;28;20218;-73
2021/06/16 08:08:14;;;;;;;4.95;2.85;;;;;;;24.19;49.19;100958.81;5049244;28;20735;-74
2021/06/16 08:10:40;;;;;;;5.15;2.85;;;;;;;24.26;48.96;100959.84;5035090;28;20216;-73
2021/06/16 08:13:07;;;;;;;4.18;3.13;;;;;;;24.37;48.38;100961.31;5040364;28;20212;-75
2021/06/16 08:15:35;;;;;;;3.78;2.50;;;;;;;24.49;48.77;100962.63;5045385;28;20856;-74
2021/06/16 08:18:01;;;;;;;6.57;3.08;;;;;;;24.64;48.45;100954.53;5040747;28;20205;-74
2021/06/16 08:20:28;;;;;;;6.38;3.22;;;;;;;24.73;47.04;100953.41;5035732;28;20198;-73
2021/06/16 08:22:56;;;;;;;6.35;3.05;;;;;;;24.82;47.25;100955.91;5046587;28;20202;-74
2021/06/16 08:25:23;;;;;;;5.43;2.95;;;;;;;24.95;47.97;100947.16;5047828;28;20244;-74
2021/06/16 08:27:49;;;;;;;3.92;2.85;;;;;;;25.08;47.90;100952.00;5047523;28;20735;-72
2021/06/16 08:30:17;;;;;;;4.40;2.95;;;;;;;25.18;46.80;100937.06;5049659;28;20214;-76
2021/06/16 08:32:45;;;;;;;4.82;2.60;;;;;;;25.24;46.59;100938.22;5044449;28;20727;-72
2021/06/16 08:35:12;;;;;;;5.78;3.10;;;;;;;25.31;46.63;100939.16;5042102;28;20236;-74
2021/06/16 08:37:39;;;;;;;9.10;3.10;;;;;;;25.38;46.02;100929.19;5038965;28;20212;-74
2021/06/16 08:40:09;;;;;;;3.85;2.42;;;;;;;25.50;46.33;100935.88;5034812;28;20213;-76
2021/06/16 08:42:35;;;;;;;8.00;2.75;;;;;;;25.58;45.90;100941.25;5031235;28;20666;-77
2021/06/16 08:45:03;;;;;;;3.10;2.53;;;;;;;25.63;45.18;100923.47;5038410;28;20229;-77
2021/06/16 08:47:30;;;;;;;2.92;2.17;;;;;;;25.61;45.18;100929.13;5041208;28;20226;-77
2021/06/16 08:49:57;;;;;;;4.82;2.85;;;;;;;25.60;45.37;100922.81;5035524;28;20202;-77
2021/06/16 08:52:23;;;;;;;6.85;2.80;;;;;;;25.63;45.30;100926.22;5039448;28;20673;-76
2021/06/16 08:54:50;;;;;;;4.78;2.72;;;;;;;25.70;45.60;100919.81;5044131;28;20228;-77
2021/06/16 08:57:18;;;;;;;5.00;2.42;;;;;;;25.79;45.33;100910.53;5048944;28;20205;-77
2021/06/16 08:59:44;;;;;;;3.92;2.10;;;;;;;25.92;45.29;100918.03;5032513;28;20225;-77
2021/06/16 09:02:11;;;;;;;6.10;2.53;;;;;;;26.00;45.14;100914.31;5036533;28;20202;-77
2021/06/16 09:04:46;;;;;;;5.45;2.55;;;;;;;26.08;44.81;100926.00;5040346;28;20193;-77
2021/06/16 09:07:14;;;;;;;4.07;2.75;;;;;;;26.07;44.10;100920.72;5047684;28;20258;-77
2021/06/16 09:09:40;;;;;;;4.53;2.75;;;;;;;26.11;44.58;100917.44;5049421;28;20278;-77
2021/06/16 09:12:08;;;;;;;6.55;2.95;;;;;;;26.12;43.88;100918.28;5048433;28;20670;-77
2021/06/16 09:14:35;;;;;;;5.82;3.42;;;;;;;26.11;44.33;100916.59;5048773;28;20221;-77
2021/06/16 09:17:04;;;;;;;5.88;3.10;;;;;;;26.17;44.02;100916.63;5044740;28;20206;-77
2021/06/16 09:19:33;;;;;;;4.65;3.20;;;;;;;26.22;43.56;100916.06;5046297;28;20205;-70
2021/06/16 09:22:02;;;;;;;7.72;3.90;;;;;;;26.30;44.28;100904.22;5037444;28;20212;-69
2021/06/16 09:24:40;;;;;;;7.25;4.22;;;;;;;26.44;43.82;100906.91;5047331;28;20663;-70
2021/06/16 09:27:07;;;;;;;6.63;4.38;;;;;;;26.55;43.26;100911.00;5049229;28;20201;-70
2021/06/16 09:29:34;;;;;;;5.72;4.00;;;;;;;26.57;43.41;100895.25;5048239;28;20201;-71
2021/06/16 09:32:04;;;;;;;6.47;4.30;;;;;;;26.66;44.19;100891.38;5049738;28;20209;-70
2021/06/16 09:34:32;;;;;;;6.85;3.97;;;;;;;26.68;44.16;100893.91;5045397;28;20214;-70
2021/06/16 09:37:04;;;;;;;5.80;4.10;;;;;;;26.76;44.26;100883.66;5053087;28;20213;-70
2021/06/16 09:39:31;;;;;;;7.82;4.68;;;;;;;26.82;44.46;100885.63;5034718;28;20597;-70
2021/06/16 09:42:01;;;;;;;7.07;5.03;;;;;;;26.88;43.91;100893.00;5045292;28;20574;-70
2021/06/16 09:44:38;;;;;;;9.75;5.00;;;;;;;26.88;43.81;100886.69;5038727;28;20224;-70
2021/06/16 09:47:17;;;;;;;8.57;4.78;;;;;;;26.89;44.04;100883.78;5069953;22;20224;-66
2021/06/16 09:49:55;;;;;;;8.43;5.13;;;;;;;26.98;44.93;100884.53;5071687;28;20284;-65
2021/06/16 09:52:33;;;;;;;6.78;5.20;;;;;;;27.12;45.30;100885.44;5071697;28;20674;-65
2021/06/16 09:55:00;;;;;;;7.57;5.30;;;;;;;27.22;44.75;100885.97;5058634;28;20225;-65
2021/06/16 09:57:26;;;;;;;9.63;5.60;;;;;;;27.30;44.22;100883.06;5059427;28;20228;-66
2021/06/16 10:00:01;;;;;;;7.32;5.40;;;;;;;27.40;44.55;100885.44;5045953;28;20209;-66
2021/06/16 10:02:31;;;;;;;7.22;5.40;;;;;;;27.45;44.80;100875.56;5049297;28;20204;-66
2021/06/16 10:04:59;;;;;;;8.98;4.85;;;;;;;27.57;45.10;100874.00;5055825;28;20279;-66
2021/06/16 10:07:27;;;;;;;9.18;5.47;;;;;;;27.68;44.70;100877.19;5064156;28;20758;-65
2021/06/16 10:09:56;;;;;;;7.38;5.80;;;;;;;27.79;44.36;100865.66;5062042;28;20197;-66
2021/06/16 10:12:24;;;;;;;8.57;6.05;;;;;;;27.87;44.10;100868.22;5060480;28;20210;-65
2021/06/16 10:14:51;;;;;;;14.15;6.10;;;;;;;27.94;44.10;100864.50;5056412;28;20221;-66
2021/06/16 10:17:18;;;;;;;10.88;5.38;;;;;;;28.03;44.33;100865.13;5058982;28;20248;-65
2021/06/16 10:19:49;;;;;;;7.05;5.20;;;;;;;28.09;44.24;100867.06;5057981;28;20208;-66
2021/06/16 10:22:16;;;;;;;8.85;5.32;;;;;;;28.11;44.46;100859.47;5063867;28;20292;-66
2021/06/16 10:24:42;;;;;;;7.15;5.97;;;;;;;28.21;44.49;100861.84;5063211;28;20215;-66
2021/06/16 10:27:12;;;;;;;7.18;6.05;;;;;;;28.25;43.49;100860.38;5071090;28;20228;-65
2021/06/16 10:29:42;;;;;;;7.13;5.53;;;;;;;28.26;44.44;100846.47;5060711;28;20216;-64
2021/06/16 10:32:11;;;;;;;6.35;5.57;;;;;;;28.34;44.39;100849.00;5056595;28;20205;-67
2021/06/16 10:34:57;;;;;;;7.43;6.38;;;;;;;28.40;44.78;100841.03;5054408;28;20594;-67
2021/06/16 10:37:26;;;;;;;8.13;6.55;;;;;;;28.48;44.71;100849.91;5055360;28;20224;-67
2021/06/16 10:40:39;;;;;;;7.75;6.03;;;;;;;28.54;44.01;100846.28;5056147;28;20222;-67
2021/06/16 10:43:28;;;;;;;6.32;5.68;;;;;;;28.57;44.14;100847.78;5049056;28;20202;-67
2021/06/16 10:46:06;;;;;;;8.20;6.38;;;;;;;28.62;43.99;100845.25;5054637;28;20340;-67
2021/06/16 10:48:58;;;;;;;7.03;6.38;;;;;;;28.67;44.09;100845.44;5054275;28;20612;-67
2021/06/16 10:51:42;;;;;;;6.72;5.85;;;;;;;28.73;44.23;100844.63;5056250;28;20201;-67
2021/06/16 10:54:23;;;;;;;7.53;5.78;;;;;;;28.76;44.61;100833.22;5055577;28;20243;-67
2021/06/16 10:56:56;;;;;;;7.93;5.85;;;;;;;28.84;44.43;100833.03;5057223;28;20608;-67
2021/06/16 11:00:04;;;;;;;8.32;6.45;;;;;;;28.87;43.58;100832.63;5051221;28;20598;-67
2021/06/16 11:03:08;;;;;;;8.50;6.20;;;;;;;28.90;44.33;100832.19;5053926;28;20212;-67
2021/06/16 11:05:46;;;;;;;6.35;5.75;;;;;;;28.92;43.78;100824.59;5053012;28;20193;-67
2021/06/16 11:08:47;;;;;;;9.77;6.15;;;;;;;28.95;43.82;100828.81;5053717;28;20752;-67
2021/06/16 11:11:14;;;;;;;6.82;6.20;;;;;;;28.90;44.23;100826.72;5056803;28;20206;-67
2021/06/16 11:13:43;;;;;;;7.57;6.72;;;;;;;28.95;44.45;100817.84;5053062;28;20655;-68
2021/06/16 11:17:03;;;;;;;7.07;6.05;;;;;;;29.00;44.34;100816.16;5055595;28;20228;-68
2021/06/16 11:19:40;;;;;;;7.15;6.45;;;;;;;29.08;44.57;100811.50;5055577;28;20251;-67
2021/06/16 11:22:34;;;;;;;7.57;6.38;;;;;;;29.09;43.98;100814.03;5054969;28;20208;-66
2021/06/16 11:25:06;;;;;;;8.23;6.35;;;;;;;29.08;42.90;100806.00;5059646;28;20194;-67
2021/06/16 11:27:59;;;;;;;8.68;5.80;;;;;;;29.10;43.35;100802.00;5058827;28;20225;-66
2021/06/16 11:30:34;;;;;;;10.93;6.38;;;;;;;29.21;44.30;100800.47;5067979;28;20207;-66
2021/06/16 11:33:35;;;;;;;8.02;6.60;;;;;;;29.31;43.44;100796.25;5056219;28;20222;-66
2021/06/16 11:36:07;;;;;;;6.55;5.95;;;;;;;29.38;42.77;100796.22;5010309;28;20286;-66